sensor_id;sensor_type;location;lat;lon;timestamp;temperature;humidity
20487;DHT22;10402;49.012;8.370;2022-12-29T00:01:50;12.30;75.80
20487;DHT22;10402;49.012;8.370;2022-12-29T00:04:15;12.30;75.70
20487;DHT22;10402;49.012;8.370;2022-12-29T00:06:42;12.40;75.90
20487;DHT22;10402;49.012;8.370;2022-12-29T00:09:08;12.40;75.90
20487;DHT22;10402;49.012;8.370;2022-12-29T00:11:35;12.30;75.80
20487;DHT22;10402;49.012;8.370;2022-12-29T00:14:00;12.40;75.90
20487;DHT22;10402;49.012;8.370;2022-12-29T00:16:45;12.40;75.90
20487;DHT22;10402;49.012;8.370;2022-12-29T00:19:11;12.40;75.90
20487;DHT22;10402;49.012;8.370;2022-12-29T00:21:56;12.40;75.90
20487;DHT22;10402;49.012;8.370;2022-12-29T00:24:40;12.40;75.90
20487;DHT22;10402;49.012;8.370;2022-12-29T00:27:26;12.40;75.90
20487;DHT22;10402;49.012;8.370;2022-12-29T00:30:12;12.40;75.90
20487;DHT22;10402;49.012;8.370;2022-12-29T00:32:57;12.40;75.90
20487;DHT22;10402;49.012;8.370;2022-12-29T00:35:52;12.40;75.80
20487;DHT22;10402;49.012;8.370;2022-12-29T00:38:19;12.40;75.80
20487;DHT22;10402;49.012;8.370;2022-12-29T00:41:04;12.50;75.80
20487;DHT22;10402;49.012;8.370;2022-12-29T00:43:48;12.50;75.70
20487;DHT22;10402;49.012;8.370;2022-12-29T00:46:38;12.50;75.70
20487;DHT22;10402;49.012;8.370;2022-12-29T00:49:05;12.50;75.60
20487;DHT22;10402;49.012;8.370;2022-12-29T00:51:50;12.50;75.70
20487;DHT22;10402;49.012;8.370;2022-12-29T00:54:16;12.50;75.60
20487;DHT22;10402;49.012;8.370;2022-12-29T00:56:42;12.50;75.70
20487;DHT22;10402;49.012;8.370;2022-12-29T00:59:09;12.50;75.90
20487;DHT22;10402;49.012;8.370;2022-12-29T01:01:36;12.50;76.10
20487;DHT22;10402;49.012;8.370;2022-12-29T01:04:03;12.50;76.30
20487;DHT22;10402;49.012;8.370;2022-12-29T01:06:28;12.50;76.30
20487;DHT22;10402;49.012;8.370;2022-12-29T01:08:54;12.50;76.30
20487;DHT22;10402;49.012;8.370;2022-12-29T01:11:39;12.50;76.30
20487;DHT22;10402;49.012;8.370;2022-12-29T01:14:04;12.40;76.50
20487;DHT22;10402;49.012;8.370;2022-12-29T01:16:31;12.40;76.80
20487;DHT22;10402;49.012;8.370;2022-12-29T01:18:57;12.40;77.00
20487;DHT22;10402;49.012;8.370;2022-12-29T01:21:22;12.50;77.10
20487;DHT22;10402;49.012;8.370;2022-12-29T01:23:48;12.40;77.10
20487;DHT22;10402;49.012;8.370;2022-12-29T01:26:16;12.40;77.20
20487;DHT22;10402;49.012;8.370;2022-12-29T01:28:42;12.40;77.40
20487;DHT22;10402;49.012;8.370;2022-12-29T01:31:09;12.40;77.50
20487;DHT22;10402;49.012;8.370;2022-12-29T01:33:35;12.40;77.50
20487;DHT22;10402;49.012;8.370;2022-12-29T01:36:05;12.40;77.50
20487;DHT22;10402;49.012;8.370;2022-12-29T01:38:31;12.40;77.60
20487;DHT22;10402;49.012;8.370;2022-12-29T01:40:57;12.40;77.60
20487;DHT22;10402;49.012;8.370;2022-12-29T01:49:05;12.40;77.60
20487;DHT22;10402;49.012;8.370;2022-12-29T01:51:55;12.40;77.60
20487;DHT22;10402;49.012;8.370;2022-12-29T01:54:32;12.40;77.60
20487;DHT22;10402;49.012;8.370;2022-12-29T01:57:01;12.40;77.60
20487;DHT22;10402;49.012;8.370;2022-12-29T01:59:32;12.40;77.70
20487;DHT22;10402;49.012;8.370;2022-12-29T02:01:58;12.40;77.70
20487;DHT22;10402;49.012;8.370;2022-12-29T02:04:24;12.40;77.80
20487;DHT22;10402;49.012;8.370;2022-12-29T02:06:54;12.40;77.80
20487;DHT22;10402;49.012;8.370;2022-12-29T02:09:21;12.40;77.80
20487;DHT22;10402;49.012;8.370;2022-12-29T02:11:47;12.40;77.80
20487;DHT22;10402;49.012;8.370;2022-12-29T02:14:14;12.40;77.80
20487;DHT22;10402;49.012;8.370;2022-12-29T02:27:55;12.40;77.80
20487;DHT22;10402;49.012;8.370;2022-12-29T02:35:50;12.40;77.80
20487;DHT22;10402;49.012;8.370;2022-12-29T02:38:44;12.50;77.90
20487;DHT22;10402;49.012;8.370;2022-12-29T02:42:07;12.40;77.70
20487;DHT22;10402;49.012;8.370;2022-12-29T02:44:39;12.40;77.70
20487;DHT22;10402;49.012;8.370;2022-12-29T02:52:36;12.40;77.80
20487;DHT22;10402;49.012;8.370;2022-12-29T02:55:03;12.40;77.90
20487;DHT22;10402;49.012;8.370;2022-12-29T02:57:32;12.40;78.00
20487;DHT22;10402;49.012;8.370;2022-12-29T03:00:03;12.40;78.10
20487;DHT22;10402;49.012;8.370;2022-12-29T03:02:48;12.40;78.30
20487;DHT22;10402;49.012;8.370;2022-12-29T03:08:05;12.40;78.80
20487;DHT22;10402;49.012;8.370;2022-12-29T03:16:08;12.30;78.70
20487;DHT22;10402;49.012;8.370;2022-12-29T03:18:53;12.30;79.00
20487;DHT22;10402;49.012;8.370;2022-12-29T03:21:35;12.30;78.60
20487;DHT22;10402;49.012;8.370;2022-12-29T03:24:24;12.40;78.80
20487;DHT22;10402;49.012;8.370;2022-12-29T03:26:51;12.40;78.70
20487;DHT22;10402;49.012;8.370;2022-12-29T03:29:19;12.40;78.70
20487;DHT22;10402;49.012;8.370;2022-12-29T03:31:49;12.40;78.70
20487;DHT22;10402;49.012;8.370;2022-12-29T03:34:16;12.40;78.60
20487;DHT22;10402;49.012;8.370;2022-12-29T03:36:53;12.40;78.60
20487;DHT22;10402;49.012;8.370;2022-12-29T03:39:22;12.40;78.50
20487;DHT22;10402;49.012;8.370;2022-12-29T03:41:51;12.40;78.50
20487;DHT22;10402;49.012;8.370;2022-12-29T03:44:18;12.40;78.50
20487;DHT22;10402;49.012;8.370;2022-12-29T03:46:43;12.40;78.40
20487;DHT22;10402;49.012;8.370;2022-12-29T03:49:09;12.40;78.40
20487;DHT22;10402;49.012;8.370;2022-12-29T03:51:34;12.40;78.50
20487;DHT22;10402;49.012;8.370;2022-12-29T03:54:00;12.40;78.40
20487;DHT22;10402;49.012;8.370;2022-12-29T03:56:25;12.40;78.40
20487;DHT22;10402;49.012;8.370;2022-12-29T03:58:51;12.30;78.30
20487;DHT22;10402;49.012;8.370;2022-12-29T04:01:16;12.40;78.40
20487;DHT22;10402;49.012;8.370;2022-12-29T04:03:42;12.30;78.20
20487;DHT22;10402;49.012;8.370;2022-12-29T04:06:07;12.40;78.20
20487;DHT22;10402;49.012;8.370;2022-12-29T04:08:33;12.40;78.20
20487;DHT22;10402;49.012;8.370;2022-12-29T04:10:59;12.40;78.10
20487;DHT22;10402;49.012;8.370;2022-12-29T04:13:24;12.40;78.10
20487;DHT22;10402;49.012;8.370;2022-12-29T04:15:50;12.40;78.00
20487;DHT22;10402;49.012;8.370;2022-12-29T04:18:15;12.40;78.00
20487;DHT22;10402;49.012;8.370;2022-12-29T04:20:41;12.40;77.90
20487;DHT22;10402;49.012;8.370;2022-12-29T04:23:26;12.40;77.80
20487;DHT22;10402;49.012;8.370;2022-12-29T04:25:51;12.40;78.60
20487;DHT22;10402;49.012;8.370;2022-12-29T04:28:17;12.40;77.80
20487;DHT22;10402;49.012;8.370;2022-12-29T04:30:43;12.40;77.80
20487;DHT22;10402;49.012;8.370;2022-12-29T04:33:09;12.40;77.70
20487;DHT22;10402;49.012;8.370;2022-12-29T04:35:34;12.40;77.60
20487;DHT22;10402;49.012;8.370;2022-12-29T04:38:00;12.40;77.60
20487;DHT22;10402;49.012;8.370;2022-12-29T04:40:25;12.40;77.50
20487;DHT22;10402;49.012;8.370;2022-12-29T04:42:51;12.40;77.50
20487;DHT22;10402;49.012;8.370;2022-12-29T04:45:17;12.40;77.50
20487;DHT22;10402;49.012;8.370;2022-12-29T04:47:42;12.40;77.40
20487;DHT22;10402;49.012;8.370;2022-12-29T04:50:08;12.40;77.40
20487;DHT22;10402;49.012;8.370;2022-12-29T04:52:34;12.40;77.30
20487;DHT22;10402;49.012;8.370;2022-12-29T04:54:59;12.40;77.30
20487;DHT22;10402;49.012;8.370;2022-12-29T04:57:25;12.40;77.30
20487;DHT22;10402;49.012;8.370;2022-12-29T04:59:51;12.40;77.30
20487;DHT22;10402;49.012;8.370;2022-12-29T05:02:16;12.40;77.30
20487;DHT22;10402;49.012;8.370;2022-12-29T05:04:42;12.40;77.20
20487;DHT22;10402;49.012;8.370;2022-12-29T05:07:08;12.50;77.30
20487;DHT22;10402;49.012;8.370;2022-12-29T05:09:33;12.40;77.30
20487;DHT22;10402;49.012;8.370;2022-12-29T05:11:59;12.40;78.10
20487;DHT22;10402;49.012;8.370;2022-12-29T05:14:24;12.40;77.30
20487;DHT22;10402;49.012;8.370;2022-12-29T05:16:50;12.40;77.30
20487;DHT22;10402;49.012;8.370;2022-12-29T05:19:16;12.50;77.40
20487;DHT22;10402;49.012;8.370;2022-12-29T05:21:42;12.40;77.40
20487;DHT22;10402;49.012;8.370;2022-12-29T05:24:08;12.40;77.40
20487;DHT22;10402;49.012;8.370;2022-12-29T05:26:34;12.50;77.50
20487;DHT22;10402;49.012;8.370;2022-12-29T05:28:59;12.50;77.50
20487;DHT22;10402;49.012;8.370;2022-12-29T05:31:26;12.50;77.40
20487;DHT22;10402;49.012;8.370;2022-12-29T05:33:51;12.50;77.40
20487;DHT22;10402;49.012;8.370;2022-12-29T05:36:17;12.50;77.30
20487;DHT22;10402;49.012;8.370;2022-12-29T05:38:43;12.50;77.30
20487;DHT22;10402;49.012;8.370;2022-12-29T05:41:09;12.50;77.30
20487;DHT22;10402;49.012;8.370;2022-12-29T05:43:34;12.50;77.30
20487;DHT22;10402;49.012;8.370;2022-12-29T05:46:00;12.50;77.40
20487;DHT22;10402;49.012;8.370;2022-12-29T05:48:26;12.50;77.30
20487;DHT22;10402;49.012;8.370;2022-12-29T05:50:51;12.60;77.40
20487;DHT22;10402;49.012;8.370;2022-12-29T05:53:17;12.60;77.40
20487;DHT22;10402;49.012;8.370;2022-12-29T05:55:44;12.60;77.40
20487;DHT22;10402;49.012;8.370;2022-12-29T05:58:11;12.60;77.40
20487;DHT22;10402;49.012;8.370;2022-12-29T06:00:36;12.60;77.40
20487;DHT22;10402;49.012;8.370;2022-12-29T06:03:02;12.50;77.30
20487;DHT22;10402;49.012;8.370;2022-12-29T06:05:27;12.50;77.30
20487;DHT22;10402;49.012;8.370;2022-12-29T06:07:53;12.50;77.30
20487;DHT22;10402;49.012;8.370;2022-12-29T06:10:18;12.60;77.40
20487;DHT22;10402;49.012;8.370;2022-12-29T06:12:44;12.60;77.40
20487;DHT22;10402;49.012;8.370;2022-12-29T06:15:10;12.60;77.30
20487;DHT22;10402;49.012;8.370;2022-12-29T06:17:35;12.60;77.30
20487;DHT22;10402;49.012;8.370;2022-12-29T06:20:02;12.60;77.30
20487;DHT22;10402;49.012;8.370;2022-12-29T06:22:27;12.60;77.30
20487;DHT22;10402;49.012;8.370;2022-12-29T06:24:53;12.60;77.30
20487;DHT22;10402;49.012;8.370;2022-12-29T06:27:18;12.60;77.20
20487;DHT22;10402;49.012;8.370;2022-12-29T06:29:44;12.60;77.20
20487;DHT22;10402;49.012;8.370;2022-12-29T06:32:10;12.60;77.10
20487;DHT22;10402;49.012;8.370;2022-12-29T06:34:35;12.70;77.10
20487;DHT22;10402;49.012;8.370;2022-12-29T06:37:01;12.70;77.10
20487;DHT22;10402;49.012;8.370;2022-12-29T06:39:27;12.70;77.00
20487;DHT22;10402;49.012;8.370;2022-12-29T06:41:53;12.70;76.50
20487;DHT22;10402;49.012;8.370;2022-12-29T06:44:20;12.70;76.50
20487;DHT22;10402;49.012;8.370;2022-12-29T06:46:46;12.70;76.50
20487;DHT22;10402;49.012;8.370;2022-12-29T06:49:12;12.70;76.50
20487;DHT22;10402;49.012;8.370;2022-12-29T06:51:38;12.70;76.50
20487;DHT22;10402;49.012;8.370;2022-12-29T06:54:03;12.60;76.40
20487;DHT22;10402;49.012;8.370;2022-12-29T06:56:29;12.60;76.40
20487;DHT22;10402;49.012;8.370;2022-12-29T06:58:54;12.60;76.40
20487;DHT22;10402;49.012;8.370;2022-12-29T07:01:20;12.60;76.40
20487;DHT22;10402;49.012;8.370;2022-12-29T07:03:45;12.60;76.40
20487;DHT22;10402;49.012;8.370;2022-12-29T07:06:11;12.60;76.40
20487;DHT22;10402;49.012;8.370;2022-12-29T07:08:36;12.60;76.40
20487;DHT22;10402;49.012;8.370;2022-12-29T07:11:02;12.60;76.40
20487;DHT22;10402;49.012;8.370;2022-12-29T07:13:28;12.70;77.20
20487;DHT22;10402;49.012;8.370;2022-12-29T07:15:53;12.70;76.40
20487;DHT22;10402;49.012;8.370;2022-12-29T07:18:19;12.70;76.30
20487;DHT22;10402;49.012;8.370;2022-12-29T07:20:44;12.70;76.40
20487;DHT22;10402;49.012;8.370;2022-12-29T07:23:10;12.70;76.20
20487;DHT22;10402;49.012;8.370;2022-12-29T07:25:36;12.70;76.20
20487;DHT22;10402;49.012;8.370;2022-12-29T07:28:03;12.70;76.20
20487;DHT22;10402;49.012;8.370;2022-12-29T07:30:28;12.70;75.90
20487;DHT22;10402;49.012;8.370;2022-12-29T07:32:54;12.70;75.90
20487;DHT22;10402;49.012;8.370;2022-12-29T07:35:19;12.70;75.90
20487;DHT22;10402;49.012;8.370;2022-12-29T07:37:45;12.70;75.90
20487;DHT22;10402;49.012;8.370;2022-12-29T07:40:11;12.70;75.80
20487;DHT22;10402;49.012;8.370;2022-12-29T07:42:36;12.70;75.70
20487;DHT22;10402;49.012;8.370;2022-12-29T07:45:02;12.70;75.60
20487;DHT22;10402;49.012;8.370;2022-12-29T07:47:28;12.70;75.50
20487;DHT22;10402;49.012;8.370;2022-12-29T07:49:53;12.70;75.40
20487;DHT22;10402;49.012;8.370;2022-12-29T07:52:19;12.80;75.40
20487;DHT22;10402;49.012;8.370;2022-12-29T07:54:44;12.80;75.30
20487;DHT22;10402;49.012;8.370;2022-12-29T07:57:10;12.80;75.20
20487;DHT22;10402;49.012;8.370;2022-12-29T07:59:36;12.80;75.10
20487;DHT22;10402;49.012;8.370;2022-12-29T08:02:02;12.80;75.10
20487;DHT22;10402;49.012;8.370;2022-12-29T08:04:27;12.80;75.00
20487;DHT22;10402;49.012;8.370;2022-12-29T08:06:53;12.80;74.90
20487;DHT22;10402;49.012;8.370;2022-12-29T08:09:18;12.80;74.90
20487;DHT22;10402;49.012;8.370;2022-12-29T08:11:44;12.80;75.60
20487;DHT22;10402;49.012;8.370;2022-12-29T08:14:10;12.90;74.80
20487;DHT22;10402;49.012;8.370;2022-12-29T08:16:36;12.90;74.70
20487;DHT22;10402;49.012;8.370;2022-12-29T08:19:01;12.90;74.50
20487;DHT22;10402;49.012;8.370;2022-12-29T08:21:28;12.90;74.50
20487;DHT22;10402;49.012;8.370;2022-12-29T08:23:54;12.90;74.40
20487;DHT22;10402;49.012;8.370;2022-12-29T08:26:19;13.00;74.20
20487;DHT22;10402;49.012;8.370;2022-12-29T08:28:45;13.00;74.10
20487;DHT22;10402;49.012;8.370;2022-12-29T08:31:10;13.00;74.10
20487;DHT22;10402;49.012;8.370;2022-12-29T08:33:36;13.00;74.00
20487;DHT22;10402;49.012;8.370;2022-12-29T08:36:03;13.10;74.00
20487;DHT22;10402;49.012;8.370;2022-12-29T08:38:29;13.10;73.90
20487;DHT22;10402;49.012;8.370;2022-12-29T08:40:56;13.10;73.70
20487;DHT22;10402;49.012;8.370;2022-12-29T08:43:21;13.20;73.70
20487;DHT22;10402;49.012;8.370;2022-12-29T08:45:47;13.20;73.60
20487;DHT22;10402;49.012;8.370;2022-12-29T08:48:12;13.20;73.50
20487;DHT22;10402;49.012;8.370;2022-12-29T08:50:38;13.20;74.30
20487;DHT22;10402;49.012;8.370;2022-12-29T08:53:03;13.30;73.60
20487;DHT22;10402;49.012;8.370;2022-12-29T08:55:29;13.20;73.40
20487;DHT22;10402;49.012;8.370;2022-12-29T08:57:54;13.30;73.40
20487;DHT22;10402;49.012;8.370;2022-12-29T09:00:20;13.30;73.30
20487;DHT22;10402;49.012;8.370;2022-12-29T09:02:46;13.30;73.30
20487;DHT22;10402;49.012;8.370;2022-12-29T09:05:12;13.30;73.20
20487;DHT22;10402;49.012;8.370;2022-12-29T09:07:37;13.30;73.20
20487;DHT22;10402;49.012;8.370;2022-12-29T09:10:04;13.30;73.00
20487;DHT22;10402;49.012;8.370;2022-12-29T09:12:29;13.40;73.10
20487;DHT22;10402;49.012;8.370;2022-12-29T09:14:55;13.40;73.00
20487;DHT22;10402;49.012;8.370;2022-12-29T09:17:20;13.40;73.00
20487;DHT22;10402;49.012;8.370;2022-12-29T09:20:05;13.40;73.00
20487;DHT22;10402;49.012;8.370;2022-12-29T09:22:31;13.40;72.90
20487;DHT22;10402;49.012;8.370;2022-12-29T09:24:56;13.50;73.00
20487;DHT22;10402;49.012;8.370;2022-12-29T09:27:22;13.50;73.00
20487;DHT22;10402;49.012;8.370;2022-12-29T09:29:47;13.50;73.00
20487;DHT22;10402;49.012;8.370;2022-12-29T09:32:13;13.50;73.00
20487;DHT22;10402;49.012;8.370;2022-12-29T09:34:38;13.50;73.00
20487;DHT22;10402;49.012;8.370;2022-12-29T09:37:03;13.50;72.90
20487;DHT22;10402;49.012;8.370;2022-12-29T09:39:29;13.60;73.00
20487;DHT22;10402;49.012;8.370;2022-12-29T09:46:57;13.60;73.00
20487;DHT22;10402;49.012;8.370;2022-12-29T09:49:45;13.70;73.20
20487;DHT22;10402;49.012;8.370;2022-12-29T09:52:23;13.70;73.20
20487;DHT22;10402;49.012;8.370;2022-12-29T09:55:00;13.70;73.20
20487;DHT22;10402;49.012;8.370;2022-12-29T09:57:43;13.70;73.10
20487;DHT22;10402;49.012;8.370;2022-12-29T10:00:18;13.70;74.00
20487;DHT22;10402;49.012;8.370;2022-12-29T10:02:52;13.80;73.30
20487;DHT22;10402;49.012;8.370;2022-12-29T10:05:26;13.80;73.50
20487;DHT22;10402;49.012;8.370;2022-12-29T10:10:53;13.80;73.80
20487;DHT22;10402;49.012;8.370;2022-12-29T10:13:26;13.80;73.80
20487;DHT22;10402;49.012;8.370;2022-12-29T10:18:53;13.70;74.40
20487;DHT22;10402;49.012;8.370;2022-12-29T10:24:11;13.60;74.90
20487;DHT22;10402;49.012;8.370;2022-12-29T10:26:42;13.60;75.10
20487;DHT22;10402;49.012;8.370;2022-12-29T10:29:23;13.60;75.40
20487;DHT22;10402;49.012;8.370;2022-12-29T10:32:09;13.50;75.60
20487;DHT22;10402;49.012;8.370;2022-12-29T10:34:43;13.50;76.00
20487;DHT22;10402;49.012;8.370;2022-12-29T10:39:58;13.50;76.40
20487;DHT22;10402;49.012;8.370;2022-12-29T10:42:33;13.50;76.60
20487;DHT22;10402;49.012;8.370;2022-12-29T10:45:02;13.50;76.70
20487;DHT22;10402;49.012;8.370;2022-12-29T10:47:33;13.50;76.70
20487;DHT22;10402;49.012;8.370;2022-12-29T10:50:01;13.50;76.70
20487;DHT22;10402;49.012;8.370;2022-12-29T10:52:28;13.50;76.80
20487;DHT22;10402;49.012;8.370;2022-12-29T10:54:58;13.50;76.80
20487;DHT22;10402;49.012;8.370;2022-12-29T10:59:49;13.60;76.90
20487;DHT22;10402;49.012;8.370;2022-12-29T11:07:58;13.60;76.80
20487;DHT22;10402;49.012;8.370;2022-12-29T11:10:40;13.60;76.80
20487;DHT22;10402;49.012;8.370;2022-12-29T11:13:28;13.60;76.70
20487;DHT22;10402;49.012;8.370;2022-12-29T11:15:53;13.70;76.90
20487;DHT22;10402;49.012;8.370;2022-12-29T11:18:36;13.70;76.90
20487;DHT22;10402;49.012;8.370;2022-12-29T11:21:05;13.70;76.80
20487;DHT22;10402;49.012;8.370;2022-12-29T11:23:37;13.70;76.80
20487;DHT22;10402;49.012;8.370;2022-12-29T11:26:21;13.70;76.70
20487;DHT22;10402;49.012;8.370;2022-12-29T11:29:08;13.80;76.70
20487;DHT22;10402;49.012;8.370;2022-12-29T11:31:47;13.90;76.60
20487;DHT22;10402;49.012;8.370;2022-12-29T11:34:34;14.00;76.50
20487;DHT22;10402;49.012;8.370;2022-12-29T11:37:11;14.00;76.20
20487;DHT22;10402;49.012;8.370;2022-12-29T11:40:05;14.00;76.10
20487;DHT22;10402;49.012;8.370;2022-12-29T11:42:41;14.00;76.00
20487;DHT22;10402;49.012;8.370;2022-12-29T11:45:20;14.00;76.00
20487;DHT22;10402;49.012;8.370;2022-12-29T11:47:49;14.10;76.10
20487;DHT22;10402;49.012;8.370;2022-12-29T11:50:25;14.00;76.00
20487;DHT22;10402;49.012;8.370;2022-12-29T11:52:59;14.10;76.10
20487;DHT22;10402;49.012;8.370;2022-12-29T11:55:26;14.00;76.00
20487;DHT22;10402;49.012;8.370;2022-12-29T11:57:54;14.00;75.90
20487;DHT22;10402;49.012;8.370;2022-12-29T12:00:22;14.10;75.90
20487;DHT22;10402;49.012;8.370;2022-12-29T12:03:03;14.10;75.90
20487;DHT22;10402;49.012;8.370;2022-12-29T12:08:40;14.10;75.80
20487;DHT22;10402;49.012;8.370;2022-12-29T12:11:16;14.10;75.70
20487;DHT22;10402;49.012;8.370;2022-12-29T12:16:22;14.10;75.40
20487;DHT22;10402;49.012;8.370;2022-12-29T12:18:55;14.10;75.30
20487;DHT22;10402;49.012;8.370;2022-12-29T12:21:32;14.10;75.30
20487;DHT22;10402;49.012;8.370;2022-12-29T12:24:20;14.10;75.20
20487;DHT22;10402;49.012;8.370;2022-12-29T12:27:11;14.10;75.10
20487;DHT22;10402;49.012;8.370;2022-12-29T12:32:27;14.10;75.10
20487;DHT22;10402;49.012;8.370;2022-12-29T12:34:54;14.10;75.10
20487;DHT22;10402;49.012;8.370;2022-12-29T12:37:41;14.20;75.00
20487;DHT22;10402;49.012;8.370;2022-12-29T12:42:56;14.20;74.90
20487;DHT22;10402;49.012;8.370;2022-12-29T12:56:17;14.10;75.00
20487;DHT22;10402;49.012;8.370;2022-12-29T13:12:36;14.10;75.40
20487;DHT22;10402;49.012;8.370;2022-12-29T13:15:15;14.10;75.40
20487;DHT22;10402;49.012;8.370;2022-12-29T13:20:44;14.10;75.50
20487;DHT22;10402;49.012;8.370;2022-12-29T13:24:12;14.10;75.60
20487;DHT22;10402;49.012;8.370;2022-12-29T13:26:31;14.10;75.60
20487;DHT22;10402;49.012;8.370;2022-12-29T13:29:32;14.10;75.60
20487;DHT22;10402;49.012;8.370;2022-12-29T13:32:45;14.10;75.70
20487;DHT22;10402;49.012;8.370;2022-12-29T13:35:46;14.00;75.60
20487;DHT22;10402;49.012;8.370;2022-12-29T13:38:20;13.90;75.70
20487;DHT22;10402;49.012;8.370;2022-12-29T13:41:01;13.90;75.90
20487;DHT22;10402;49.012;8.370;2022-12-29T13:43:32;13.80;76.10
20487;DHT22;10402;49.012;8.370;2022-12-29T13:46:06;13.70;76.30
20487;DHT22;10402;49.012;8.370;2022-12-29T13:49:11;13.70;76.70
20487;DHT22;10402;49.012;8.370;2022-12-29T13:52:27;13.60;76.90
20487;DHT22;10402;49.012;8.370;2022-12-29T13:54:45;13.50;77.10
20487;DHT22;10402;49.012;8.370;2022-12-29T13:57:48;13.50;77.30
20487;DHT22;10402;49.012;8.370;2022-12-29T14:00:19;13.40;77.20
20487;DHT22;10402;49.012;8.370;2022-12-29T14:07:43;13.10;78.80
20487;DHT22;10402;49.012;8.370;2022-12-29T14:10:34;13.00;79.10
20487;DHT22;10402;49.012;8.370;2022-12-29T14:13:23;12.90;79.60
20487;DHT22;10402;49.012;8.370;2022-12-29T14:15:52;12.80;80.10
20487;DHT22;10402;49.012;8.370;2022-12-29T14:18:21;12.80;80.70
20487;DHT22;10402;49.012;8.370;2022-12-29T14:28:37;12.60;82.00
20487;DHT22;10402;49.012;8.370;2022-12-29T14:39:01;12.30;82.90
20487;DHT22;10402;49.012;8.370;2022-12-29T14:41:34;12.30;83.20
20487;DHT22;10402;49.012;8.370;2022-12-29T14:44:17;12.20;83.40
20487;DHT22;10402;49.012;8.370;2022-12-29T14:49:21;12.20;84.00
20487;DHT22;10402;49.012;8.370;2022-12-29T14:51:50;12.10;84.30
20487;DHT22;10402;49.012;8.370;2022-12-29T14:59:47;12.10;85.50
20487;DHT22;10402;49.012;8.370;2022-12-29T15:02:17;12.10;84.90
20487;DHT22;10402;49.012;8.370;2022-12-29T15:04:44;12.10;85.20
20487;DHT22;10402;49.012;8.370;2022-12-29T15:07:12;12.10;85.20
20487;DHT22;10402;49.012;8.370;2022-12-29T15:10:03;12.00;85.30
20487;DHT22;10402;49.012;8.370;2022-12-29T15:15:10;12.00;85.70
20487;DHT22;10402;49.012;8.370;2022-12-29T15:17:41;12.00;85.90
20487;DHT22;10402;49.012;8.370;2022-12-29T15:20:30;12.00;86.10
20487;DHT22;10402;49.012;8.370;2022-12-29T15:23:16;12.00;86.20
20487;DHT22;10402;49.012;8.370;2022-12-29T15:25:52;12.00;86.40
20487;DHT22;10402;49.012;8.370;2022-12-29T15:28:20;12.00;86.50
20487;DHT22;10402;49.012;8.370;2022-12-29T15:31:02;11.90;86.70
20487;DHT22;10402;49.012;8.370;2022-12-29T15:33:28;12.00;86.90
20487;DHT22;10402;49.012;8.370;2022-12-29T15:35:56;11.90;86.90
20487;DHT22;10402;49.012;8.370;2022-12-29T15:38:28;11.90;86.90
20487;DHT22;10402;49.012;8.370;2022-12-29T15:40:58;11.90;87.00
20487;DHT22;10402;49.012;8.370;2022-12-29T15:46:17;11.80;87.40
20487;DHT22;10402;49.012;8.370;2022-12-29T15:48:43;11.80;87.70
20487;DHT22;10402;49.012;8.370;2022-12-29T15:53:46;11.70;88.10
20487;DHT22;10402;49.012;8.370;2022-12-29T15:56:12;11.70;88.30
20487;DHT22;10402;49.012;8.370;2022-12-29T15:58:47;11.70;88.40
20487;DHT22;10402;49.012;8.370;2022-12-29T16:01:34;11.80;88.60
20487;DHT22;10402;49.012;8.370;2022-12-29T16:04:05;11.80;88.70
20487;DHT22;10402;49.012;8.370;2022-12-29T16:06:43;11.80;88.70
20487;DHT22;10402;49.012;8.370;2022-12-29T16:09:28;11.80;88.80
20487;DHT22;10402;49.012;8.370;2022-12-29T16:11:57;11.70;88.90
20487;DHT22;10402;49.012;8.370;2022-12-29T16:14:50;11.70;89.10
20487;DHT22;10402;49.012;8.370;2022-12-29T16:17:20;11.70;89.20
20487;DHT22;10402;49.012;8.370;2022-12-29T16:19:55;11.70;89.50
20487;DHT22;10402;49.012;8.370;2022-12-29T16:22:34;11.60;89.40
20487;DHT22;10402;49.012;8.370;2022-12-29T16:25:11;11.70;89.80
20487;DHT22;10402;49.012;8.370;2022-12-29T16:27:41;11.60;89.80
20487;DHT22;10402;49.012;8.370;2022-12-29T16:32:47;11.70;90.00
20487;DHT22;10402;49.012;8.370;2022-12-29T16:35:18;11.60;90.10
20487;DHT22;10402;49.012;8.370;2022-12-29T16:37:45;11.60;90.10
20487;DHT22;10402;49.012;8.370;2022-12-29T16:40:24;11.60;90.10
20487;DHT22;10402;49.012;8.370;2022-12-29T16:42:55;11.60;90.20
20487;DHT22;10402;49.012;8.370;2022-12-29T16:45:34;11.60;90.30
20487;DHT22;10402;49.012;8.370;2022-12-29T16:50:34;11.70;90.40
20487;DHT22;10402;49.012;8.370;2022-12-29T16:53:00;11.70;90.40
20487;DHT22;10402;49.012;8.370;2022-12-29T16:55:28;11.70;90.50
20487;DHT22;10402;49.012;8.370;2022-12-29T16:57:55;11.70;90.50
20487;DHT22;10402;49.012;8.370;2022-12-29T17:00:25;11.70;90.50
20487;DHT22;10402;49.012;8.370;2022-12-29T17:02:56;11.70;90.60
20487;DHT22;10402;49.012;8.370;2022-12-29T17:05:22;11.70;90.60
20487;DHT22;10402;49.012;8.370;2022-12-29T17:07:48;11.70;90.60
20487;DHT22;10402;49.012;8.370;2022-12-29T17:10:14;11.70;90.70
20487;DHT22;10402;49.012;8.370;2022-12-29T17:12:41;11.70;90.70
20487;DHT22;10402;49.012;8.370;2022-12-29T17:15:15;11.70;90.80
20487;DHT22;10402;49.012;8.370;2022-12-29T17:17:46;11.70;90.80
20487;DHT22;10402;49.012;8.370;2022-12-29T17:22:46;11.70;91.00
20487;DHT22;10402;49.012;8.370;2022-12-29T17:25:14;11.60;90.90
20487;DHT22;10402;49.012;8.370;2022-12-29T17:27:55;11.70;90.90
20487;DHT22;10402;49.012;8.370;2022-12-29T17:30:23;11.70;91.00
20487;DHT22;10402;49.012;8.370;2022-12-29T17:32:53;11.70;90.90
20487;DHT22;10402;49.012;8.370;2022-12-29T17:35:21;11.70;90.90
20487;DHT22;10402;49.012;8.370;2022-12-29T17:37:47;11.60;90.90
20487;DHT22;10402;49.012;8.370;2022-12-29T17:40:15;11.60;90.90
20487;DHT22;10402;49.012;8.370;2022-12-29T17:42:46;11.70;91.10
20487;DHT22;10402;49.012;8.370;2022-12-29T17:45:17;11.60;91.10
20487;DHT22;10402;49.012;8.370;2022-12-29T17:47:44;11.60;91.10
20487;DHT22;10402;49.012;8.370;2022-12-29T17:50:15;11.60;91.00
20487;DHT22;10402;49.012;8.370;2022-12-29T17:52:43;11.60;91.10
20487;DHT22;10402;49.012;8.370;2022-12-29T17:55:17;11.60;91.10
20487;DHT22;10402;49.012;8.370;2022-12-29T17:57:43;11.60;91.10
20487;DHT22;10402;49.012;8.370;2022-12-29T18:00:21;11.60;91.20
20487;DHT22;10402;49.012;8.370;2022-12-29T18:02:48;11.60;91.20
20487;DHT22;10402;49.012;8.370;2022-12-29T18:05:18;11.60;91.30
20487;DHT22;10402;49.012;8.370;2022-12-29T18:07:44;11.60;91.30
20487;DHT22;10402;49.012;8.370;2022-12-29T18:10:10;11.60;91.40
20487;DHT22;10402;49.012;8.370;2022-12-29T18:12:41;11.60;91.50
20487;DHT22;10402;49.012;8.370;2022-12-29T18:15:17;11.60;91.50
20487;DHT22;10402;49.012;8.370;2022-12-29T18:17:44;11.60;91.50